Latest Weather Observations for Mackay Airport

IDQ60801

Issued at 10:02 am EST Wednesday 4 May 2016 (issued every 30 minutes, with the page automatically refreshed every 10 minutes)

About weather observations | Map of weather stations | Latest weather observations for QLD | Other Formats
Station Details ID: 033045 Name: MACKAY AERO Lat: -21.17 Lon: 149.18 Height: 4.7 m
Data from the previous 72 hours. | See also: Recent months at Mackay Airport
Date/Time
EST
Temp
°C
App
Temp
°C
Dew
Point
Rel
Hum
%
Delta-T
°C
Wind Press
QNH
hPa
Press
MSL
hPa
Rain
since 9 am
mm
Dir
 
Spd
km/h
Gust
km/h
Spd
kts
Gust
kts
04/10:00am 28.2 31.9 23.3 75 3.4 N 9 13 5 7 1015.4 1015.4 0.0
04/09:30am 27.6 31.2 23.8 80 2.6 NNW 11 15 6 8 1015.7 1015.7 0.0
04/09:00am 26.6 31.1 23.9 85 1.9 WSW 7 13 4 7 1015.8 1015.8 0.0
04/08:30am 26.0 30.9 24.6 92 1.0 WNW 7 11 4 6 1015.7 1015.7 0.0
04/08:00am 24.5 28.5 23.8 96 0.5 W 9 15 5 8 1015.6 1015.6 0.0
04/07:30am 23.3 26.9 23.0 98 0.2 W 9 11 5 6 1015.2 1015.2 0.0
04/07:00am 22.5 26.2 22.2 98 0.2 WSW 6 7 3 4 1014.9 1014.9 0.0
04/06:30am 22.4 25.5 22.1 98 0.2 WSW 9 13 5 7 1014.7 1014.7 0.0
04/06:00am 22.2 25.2 21.9 98 0.2 W 9 11 5 6 1014.2 1014.2 0.0
04/05:30am 22.5 25.6 22.2 98 0.2 W 9 11 5 6 1013.8 1013.8 0.0
04/05:00am 22.3 25.7 22.0 98 0.2 W 7 9 4 5 1013.5 1013.5 0.0
04/04:30am 22.5 25.6 22.2 98 0.2 W 9 11 5 6 1013.3 1013.3 0.0
04/04:00am 22.4 25.9 22.1 98 0.2 W 7 9 4 5 1013.1 1013.1 0.0
04/03:30am 22.5 25.6 22.2 98 0.2 WSW 9 11 5 6 1013.1 1013.1 0.0
04/03:00am 22.3 25.3 22.0 98 0.2 W 9 11 5 6 1013.1 1013.1 0.0
04/02:30am 22.4 25.5 22.1 98 0.2 WSW 9 13 5 7 1013.1 1013.1 0.0
04/02:00am 22.3 25.3 22.0 98 0.2 WNW 9 13 5 7 1013.1 1013.1 0.0
04/01:30am 22.1 25.4 21.8 98 0.2 W 7 9 4 5 1013.3 1013.3 0.0
04/01:00am 22.4 25.9 22.1 98 0.2 WSW 7 9 4 5 1013.7 1013.7 0.0
04/12:30am 22.8 26.7 22.5 98 0.2 WSW 6 7 3 4 1013.9 1013.9 0.0
04/12:00am 23.2 26.7 22.9 98 0.2 N 9 11 5 6 1014.2 1014.2 0.0
 
Date/Time
EST
Temp
°C
App
Temp
°C
Dew
Point
Rel
Hum
%
Delta-T
°C
Wind Press
QNH
hPa
Press
MSL
hPa
Rain
since 9 am
mm
Dir
 
Spd
km/h
Gust
km/h
Spd
kts
Gust
kts
03/11:30pm 23.7 29.2 23.4 98 0.2 CALM 0 2 0 1 1014.3 1014.3 0.0
03/11:00pm 23.4 27.4 23.1 98 0.2 N 7 7 4 4 1014.6 1014.6 0.0
03/10:30pm 23.8 29.0 23.5 98 0.2 N 2 7 1 4 1014.6 1014.6 0.0
03/10:00pm 24.0 28.5 23.7 98 0.2 N 6 7 3 4 1014.8 1014.8 0.0
03/09:30pm 24.2 28.4 23.5 96 0.5 N 7 7 4 4 1014.9 1014.9 0.0
03/09:00pm 24.2 28.6 23.5 96 0.5 N 6 7 3 4 1014.9 1014.9 0.0
03/08:30pm 24.5 28.7 23.5 94 0.7 N 7 9 4 5 1014.6 1014.6 0.0
03/08:00pm 25.0 29.4 23.8 93 0.8 N 7 7 4 4 1014.5 1014.5 0.0
03/07:30pm 25.1 29.6 23.9 93 0.8 N 7 9 4 5 1014.0 1014.0 0.0
03/07:00pm 25.4 29.4 23.8 91 1.1 NNE 9 11 5 6 1013.7 1013.7 0.0
03/06:30pm 25.3 29.1 23.5 90 1.2 NNE 9 13 5 7 1013.3 1013.3 0.0
03/06:00pm 25.5 29.3 23.4 88 1.4 NNE 9 15 5 8 1013.0 1013.0 0.0
03/05:30pm 25.9 28.4 23.2 85 1.8 NNE 15 19 8 10 1012.4 1012.4 0.0
03/05:00pm 26.4 28.2 22.5 79 2.6 NE 17 20 9 11 1012.0 1012.0 0.0
03/04:30pm 27.2 28.8 22.2 74 3.4 NE 17 20 9 11 1011.8 1011.8 0.0
03/04:00pm 27.4 28.8 21.9 72 3.7 NE 17 22 9 12 1011.7 1011.7 0.0
03/03:30pm 28.0 29.6 22.2 70 3.9 NE 17 22 9 12 1011.6 1011.6 0.0
03/03:00pm 28.8 30.7 22.8 70 4.1 NE 17 24 9 13 1011.6 1011.6 0.0
03/02:30pm 28.5 30.4 22.7 71 3.9 NE 17 22 9 12 1011.6 1011.6 0.0
03/02:00pm 28.5 29.9 22.5 70 4.1 ENE 19 22 10 12 1011.8 1011.8 0.0
03/01:30pm 28.7 30.6 23.4 73 3.6 NE 19 22 10 12 1012.0 1012.0 0.0
03/01:00pm 28.0 29.9 22.7 73 3.6 ENE 17 20 9 11 1012.6 1012.6 0.0
03/12:30pm 28.7 31.9 24.3 77 3.1 E 15 20 8 11 1012.9 1012.9 0.0
03/12:00pm 28.4 31.4 23.3 74 3.5 E 13 17 7 9 1013.2 1013.2 0.0
03/11:30am 28.1 31.7 23.7 77 3.0 E 11 15 6 8 1013.5 1013.5 0.0
03/11:00am 28.6 33.2 23.1 72 3.8 W 4 9 2 5 1014.0 1014.0 0.0
03/10:30am 27.1 31.4 23.3 80 2.6 W 6 9 3 5 1014.8 1014.8 0.0
03/10:00am 27.2 31.7 23.9 82 2.3 ESE 7 11 4 6 1015.3 1015.3 0.0
03/09:30am 26.0 31.4 25.5 97 0.4 SSW 7 11 4 6 1015.4 1015.4 0.0
03/09:00am 24.7 29.1 24.4 98 0.2 SSW 9 13 5 7 1015.6 1015.6 0.0
03/08:51am 23.9 27.8 23.6 98 0.2 SW 9 11 5 6 1015.6 1015.6 0.0
03/08:30am 23.4 26.6 23.1 98 0.2 SSW 11 13 6 7 1015.7 1015.7 0.0
03/08:00am 22.4 24.7 22.1 98 0.2 SSW 13 15 7 8 1015.3 1015.3 0.0
03/07:53am 22.6 25.4 22.3 98 0.2 SW 11 15 6 8 1015.2 1015.2 0.0
03/07:30am 22.4 25.9 22.1 98 0.2 WSW 7 9 4 5 1014.8 1014.8 0.0
03/07:20am 21.7 24.8 21.4 98 0.2 WSW 7 9 4 5 1014.7 1014.7 0.0
03/07:02am 21.2 23.6 20.9 98 0.2 W 9 13 5 7 1014.6 1014.6 0.0
03/07:00am 21.2 23.6 20.9 98 0.2 W 9 13 5 7 1014.6 1014.6 0.0
03/06:52am 21.1 23.9 20.8 98 0.2 W 7 11 4 6 1014.5 1014.5 0.0
03/06:43am 21.0 23.3 20.7 98 0.2 W 9 11 5 6 1014.4 1014.4 0.0
03/06:30am 21.1 23.5 20.8 98 0.2 W 9 13 5 7 1014.1 1014.1 0.0
03/06:00am 21.0 23.3 20.7 98 0.2 W 9 11 5 6 1013.8 1013.8 0.0
03/05:54am 21.0 23.3 20.7 98 0.2 W 9 13 5 7 1013.8 1013.8 0.0
03/05:53am 21.1 23.5 20.8 98 0.2 W 9 13 5 7 1013.8 1013.8 0.0
03/05:30am 21.2 24.2 20.9 98 0.2 ENE 6 9 3 5 1013.6 1013.6 0.0
03/05:00am 21.3 24.4 21.0 98 0.2 ENE 6 9 3 5 1013.4 1013.4 0.0
03/04:30am 21.3 24.2 21.0 98 0.2 ENE 7 9 4 5 1013.2 1013.2 0.0
03/04:00am 21.2 24.2 20.9 98 0.2 ENE 6 7 3 4 1013.3 1013.3 0.0
03/03:30am 20.9 24.9 20.6 98 0.2 CALM 0 4 0 2 1013.5 1013.5 0.0
03/03:00am 20.8 23.4 20.5 98 0.2 ENE 7 7 4 4 1013.7 1013.7 0.0
03/02:30am 20.5 23.0 20.2 98 0.2 ENE 7 9 4 5 1013.9 1013.9 0.0
03/02:00am 21.4 25.7 21.1 98 0.2 CALM 0 0 0 0 1013.9 1013.9 0.0
03/01:30am 21.3 24.4 21.0 98 0.2 ENE 6 7 3 4 1014.0 1014.0 0.0
03/01:11am 21.6 24.6 21.3 98 0.2 ENE 7 9 4 5 1014.2 1014.2 0.0
03/01:05am 21.7 24.8 21.4 98 0.2 ENE 7 9 4 5 1014.2 1014.2 0.0
03/01:00am 21.4 24.3 21.1 98 0.2 ENE 7 9 4 5 1014.3 1014.3 0.0
03/12:57am 21.3 24.2 21.0 98 0.2 ENE 7 9 4 5 1014.3 1014.3 0.0
03/12:30am 21.9 25.1 21.6 98 0.2 ENE 7 7 4 4 1014.5 1014.5 0.0
03/12:00am 21.9 25.1 21.6 98 0.2 ENE 7 9 4 5 1014.7 1014.7 0.0
 
Date/Time
EST
Temp
°C
App
Temp
°C
Dew
Point
Rel
Hum
%
Delta-T
°C
Wind Press
QNH
hPa
Press
MSL
hPa
Rain
since 9 am
mm
Dir
 
Spd
km/h
Gust
km/h
Spd
kts
Gust
kts
02/11:53pm 22.4 25.5 22.1 98 0.2 ENE 9 9 5 5 1014.7 1014.7 0.0
02/11:30pm 22.5 26.0 22.2 98 0.2 ENE 7 9 4 5 1015.2 1015.2 0.0
02/11:28pm 22.6 26.2 22.3 98 0.2 ENE 7 9 4 5 1015.1 1015.1 0.0
02/11:00pm 22.3 25.7 22.0 98 0.2 ENE 7 11 4 6 1015.3 1015.3 0.0
02/10:30pm 22.4 26.0 22.1 98 0.2 ENE 6 7 3 4 1015.4 1015.4 0.0
02/10:00pm 23.5 28.5 23.2 98 0.2 ENE 2 7 1 4 1015.5 1015.5 0.0
02/09:30pm 23.7 29.2 23.4 98 0.2 CALM 0 6 0 3 1015.5 1015.5 0.0
02/09:09pm 24.0 28.5 23.7 98 0.2 ENE 6 7 3 4 1015.7 1015.7 0.0
02/09:00pm 23.8 28.0 23.5 98 0.2 ENE 7 9 4 5 1015.6 1015.6 0.0
02/08:30pm 24.3 30.1 24.0 98 0.2 CALM 0 0 0 0 1015.7 1015.7 0.0
02/08:25pm 24.3 30.1 24.0 98 0.2 CALM 0 0 0 0 1015.7 1015.7 0.0
02/08:00pm 24.2 28.7 23.7 97 0.3 ENE 6 6 3 3 1015.3 1015.3 0.0
02/07:30pm 24.9 29.4 24.0 95 0.6 ENE 7 9 4 5 1014.8 1014.8 0.0
02/07:00pm 25.2 30.0 24.2 94 0.7 ENE 6 9 3 5 1014.4 1014.4 0.0
02/06:30pm 25.4 30.1 24.0 92 1.0 ENE 6 7 3 4 1014.1 1014.1 0.0
02/06:00pm 25.7 30.3 24.1 91 1.1 E 7 9 4 5 1013.9 1013.9 0.0
02/05:30pm 26.1 29.8 24.5 91 1.1 ENE 13 17 7 9 1013.5 1013.5 0.0
02/05:00pm 26.9 29.4 24.4 86 1.7 ENE 19 22 10 12 1013.1 1013.1 0.0
02/04:30pm 27.2 30.1 24.5 85 1.9 ENE 17 22 9 12 1013.0 1013.0 0.0
02/04:00pm 27.3 29.7 24.2 83 2.1 E 19 24 10 13 1012.8 1012.8 0.0
02/03:30pm 27.4 29.8 24.3 83 2.1 E 19 22 10 12 1012.8 1012.8 0.0
02/03:00pm 27.9 30.4 24.7 83 2.2 E 20 26 11 14 1012.8 1012.8 0.0
02/02:30pm 28.2 30.6 24.6 81 2.5 E 20 26 11 14 1012.8 1012.8 0.0
02/02:00pm 27.9 30.1 23.9 79 2.8 E 19 24 10 13 1013.1 1013.1 0.0
02/01:30pm 28.4 31.2 25.2 83 2.2 E 20 28 11 15 1013.4 1013.4 0.0
02/01:00pm 28.3 31.2 25.1 83 2.2 E 19 24 10 13 1013.8 1013.8 0.0
02/12:30pm 28.2 30.7 23.8 77 3.0 E 17 22 9 12 1014.1 1014.1 0.0
02/12:00pm 28.5 31.8 24.5 79 2.8 E 15 20 8 11 1014.6 1014.6 0.0
02/11:30am 28.2 31.3 23.6 76 3.2 E 13 17 7 9 1015.1 1015.1 0.0
02/11:00am 27.9 31.6 23.9 79 2.8 ESE 11 17 6 9 1015.5 1015.5 0.0
02/10:30am 27.9 31.8 24.3 81 2.5 E 11 15 6 8 1015.9 1015.9 0.0
02/10:00am 26.9 32.9 25.5 92 1.0 ESE 4 13 2 7 1016.3 1016.3 0.0
02/09:53am 26.5 32.0 25.3 93 0.8 ESE 6 9 3 5 1016.3 1016.3 0.0
02/09:30am 25.5 30.8 25.2 98 0.2 S 7 9 4 5 1016.4 1016.4 0.0
02/09:05am 24.6 28.9 24.3 98 0.2 SSW 9 11 5 6 1016.3 1016.3 0.0
02/09:00am 24.1 28.1 23.8 98 0.2 SSW 9 11 5 6 1016.3 1016.3 0.0
02/08:30am 23.6 27.3 23.3 98 0.2 SSW 9 13 5 7 1016.1 1016.1 0.0
02/08:00am 23.5 27.2 23.2 98 0.2 SSW 9 13 5 7 1016.0 1016.0 0.0
02/07:30am 23.4 27.4 23.1 98 0.2 SSE 7 9 4 5 1015.7 1015.7 0.0
02/07:00am 23.2 28.4 22.9 98 0.2 CALM 0 0 0 0 1015.4 1015.4 0.0
02/06:30am 23.1 27.5 22.8 98 0.2 SSE 4 6 2 3 1015.1 1015.1 0.0
02/06:00am 22.9 26.6 22.6 98 0.2 SSE 7 9 4 5 1014.8 1014.8 0.0
02/05:30am 22.8 26.7 22.5 98 0.2 S 6 7 3 4 1014.6 1014.6 0.0
02/05:00am 22.6 25.8 22.3 98 0.2 SW 9 13 5 7 1014.4 1014.4 0.0
02/04:30am 22.3 25.7 22.0 98 0.2 SW 7 11 4 6 1014.1 1014.1 0.0
02/04:00am 22.1 25.0 21.8 98 0.2 SW 9 11 5 6 1014.1 1014.1 0.0
02/03:30am 22.1 25.4 21.8 98 0.2 SW 7 9 4 5 1013.9 1013.9 0.0
02/03:00am 22.4 26.0 22.1 98 0.2 SW 6 7 3 4 1014.0 1014.0 0.0
02/02:30am 22.5 26.0 22.2 98 0.2 SW 7 9 4 5 1014.2 1014.2 0.0
02/02:15am 22.4 25.9 22.1 98 0.2 SW 7 9 4 5 1014.3 1014.3 0.0
02/02:00am 22.6 26.3 22.3 98 0.2 SW 6 6 3 3 1014.4 1014.4 0.0
02/01:35am 22.8 26.7 22.5 98 0.2 SW 6 7 3 4 1014.6 1014.6 0.0
02/01:30am 22.8 26.5 22.5 98 0.2 SW 7 7 4 4 1014.6 1014.6 0.0
02/01:26am 23.1 26.9 22.8 98 0.2 SW 7 7 4 4 1014.6 1014.6 0.0
02/01:00am 23.0 26.8 22.7 98 0.2 SW 7 7 4 4 1015.0 1015.0 0.0
02/12:51am 22.9 26.6 22.6 98 0.2 SW 7 7 4 4 1015.2 1015.2 0.0
02/12:30am 23.2 26.7 22.9 98 0.2 SW 9 9 5 5 1015.5 1015.5 0.0
02/12:00am 23.2 27.3 22.9 98 0.2 SW 6 9 3 5 1015.8 1015.8 0.0
 
Date/Time
EST
Temp
°C
App
Temp
°C
Dew
Point
Rel
Hum
%
Delta-T
°C
Wind Press
QNH
hPa
Press
MSL
hPa
Rain
since 9 am
mm
Dir
 
Spd
km/h
Gust
km/h
Spd
kts
Gust
kts
01/11:41pm 23.6 27.7 23.3 98 0.2 SW 7 9 4 5 1015.9 1015.9 0.0
01/11:30pm 23.6 27.3 23.3 98 0.2 SW 9 9 5 5 1016.1 1016.1 0.0
01/11:16pm 23.6 27.7 23.3 98 0.2 SSW 7 9 4 5 1016.3 1016.3 0.0
01/11:04pm 24.0 28.5 23.7 98 0.2 SSW 6 7 3 4 1016.4 1016.4 0.0
01/11:00pm 24.0 28.3 23.7 98 0.2 SSW 7 9 4 5 1016.4 1016.4 0.0
01/10:30pm 24.4 28.2 24.1 98 0.2 E 11 13 6 7 1016.6 1016.6 0.0
01/10:00pm 24.6 28.9 24.3 98 0.2 E 9 11 5 6 1016.4 1016.4 0.0
01/09:47pm 24.8 30.9 24.5 98 0.2 CALM 0 0 0 0 1016.5 1016.5 0.0
01/09:30pm 24.6 29.5 24.3 98 0.2 E 6 7 3 4 1016.6 1016.6 0.0
01/09:00pm 24.9 29.8 24.4 97 0.3 E 6 7 3 4 1016.7 1016.7 0.0
01/08:30pm 25.4 30.5 24.9 97 0.3 E 7 11 4 6 1016.5 1016.5 0.0
01/08:00pm 25.7 30.6 25.2 97 0.3 E 9 11 5 6 1016.6 1016.6 0.0
01/07:30pm 25.9 30.9 25.4 97 0.3 E 9 11 5 6 1016.3 1016.3 0.0
01/07:18pm 25.6 30.4 25.1 97 0.3 ESE 9 11 5 6 1016.1 1016.1 0.0
01/07:00pm 25.6 30.3 24.9 96 0.5 E 9 13 5 7 1015.9 1015.9 0.0
01/06:30pm 25.8 30.5 24.9 95 0.6 E 9 13 5 7 1015.5 1015.5 0.0
01/06:00pm 26.0 30.6 24.8 93 0.8 E 9 13 5 7 1015.1 1015.1 0.0
01/05:30pm 26.1 29.8 24.5 91 1.1 ENE 13 17 7 9 1014.9 1014.9 0.0
01/05:00pm 26.6 29.8 24.4 88 1.5 E 15 19 8 10 1014.6 1014.6 0.0
01/04:30pm 27.1 30.0 24.4 85 1.9 ENE 17 22 9 12 1014.4 1014.4 0.0
01/04:00pm 27.6 30.2 24.6 84 2.1 ENE 19 24 10 13 1014.3 1014.3 0.0
01/03:30pm 28.1 30.8 24.7 82 2.4 E 19 22 10 12 1014.1 1014.1 0.0
01/03:00pm 28.0 30.1 23.8 78 2.9 ENE 19 22 10 12 1014.1 1014.1 0.0
01/02:30pm 28.2 31.0 25.0 83 2.2 E 19 24 10 13 1014.0 1014.0 0.0
01/02:00pm 28.4 31.4 25.2 83 2.2 E 19 22 10 12 1014.1 1014.1 0.0
01/01:30pm 27.9 30.9 24.7 83 2.2 E 17 22 9 12 1014.3 1014.3 0.0
01/01:00pm 28.1 31.3 24.9 83 2.2 E 17 22 9 12 1014.8 1014.8 0.0
01/12:30pm 28.0 31.0 24.6 82 2.4 E 17 22 9 12 1015.4 1015.4 0.0
01/12:00pm 27.9 31.3 25.3 86 1.8 E 17 24 9 13 1015.8 1015.8 0.0
01/11:30am 27.5 30.7 24.4 83 2.1 ESE 15 20 8 11 1016.2 1016.2 0.0
01/11:00am 27.9 32.2 25.5 87 1.7 ESE 13 19 7 10 1016.8 1016.8 0.0
01/10:30am 27.5 31.8 24.9 86 1.8 ESE 11 17 6 9 1017.1 1017.1 0.0

Other Formats:

Comma delimited format used in spreadsheet applications
http://www.bom.gov.au/fwo/IDQ60801/IDQ60801.95367.axf

JavaScript Object Notation format (JSON) in row-major order
http://www.bom.gov.au/fwo/IDQ60801/IDQ60801.95367.json